Ashley, Indiana
Current Conditions -  °F | °C
As of 3:55 PM on Monday 24 Nov 2014 (Local Time) from KANQ Reporting Station
Overcast Overcast  
Wind Chill: 24°   Ceiling: 1700
Heat Index: 36°   Visibility: NA
Dew Point: 30°   Wind: 24mph
Humidity: 81%   Direction: 240°WSW
Pressure: 29.47"   Gusts: 37mph
Location:  41.53°N, 85.07°W
Report Text: KANQ 242055Z AUTO 24021G32KT OVC017 02/M01 A2947 RMK
Loading
Personal Weather Stations






























Interactive Weather Map New forecast layout! Learn more

10-Day Weather Forecast

Advertisements
Track Severe Weather on mobile